sensor_id;sensor_type;location;lat;lon;timestamp;P1;durP1;ratioP1;P2;durP2;ratioP2
17175;SDS011;8703;48.996;9.594;2023-03-01T00:00:26;15.30;;;8.00;;
17175;SDS011;8703;48.996;9.594;2023-03-01T00:02:53;17.33;;;9.10;;
17175;SDS011;8703;48.996;9.594;2023-03-01T00:05:22;21.67;;;10.60;;
17175;SDS011;8703;48.996;9.594;2023-03-01T00:07:52;20.33;;;9.50;;
17175;SDS011;8703;48.996;9.594;2023-03-01T00:10:19;18.47;;;8.83;;
17175;SDS011;8703;48.996;9.594;2023-03-01T00:12:47;17.83;;;8.70;;
17175;SDS011;8703;48.996;9.594;2023-03-01T00:15:14;16.83;;;7.70;;
17175;SDS011;8703;48.996;9.594;2023-03-01T00:17:42;17.73;;;9.00;;
17175;SDS011;8703;48.996;9.594;2023-03-01T00:20:09;22.73;;;8.97;;
17175;SDS011;8703;48.996;9.594;2023-03-01T00:22:39;16.50;;;8.17;;
17175;SDS011;8703;48.996;9.594;2023-03-01T00:25:07;15.53;;;8.43;;
17175;SDS011;8703;48.996;9.594;2023-03-01T00:27:34;16.13;;;8.23;;
17175;SDS011;8703;48.996;9.594;2023-03-01T00:30:02;18.33;;;8.47;;
17175;SDS011;8703;48.996;9.594;2023-03-01T00:32:30;17.90;;;8.00;;
17175;SDS011;8703;48.996;9.594;2023-03-01T00:34:58;17.30;;;8.83;;
17175;SDS011;8703;48.996;9.594;2023-03-01T00:37:25;18.47;;;9.17;;
17175;SDS011;8703;48.996;9.594;2023-03-01T00:39:54;20.10;;;9.00;;
17175;SDS011;8703;48.996;9.594;2023-03-01T00:42:21;17.20;;;8.83;;
17175;SDS011;8703;48.996;9.594;2023-03-01T00:44:48;16.43;;;8.80;;
17175;SDS011;8703;48.996;9.594;2023-03-01T00:47:16;18.53;;;8.47;;
17175;SDS011;8703;48.996;9.594;2023-03-01T00:49:43;16.20;;;8.07;;
17175;SDS011;8703;48.996;9.594;2023-03-01T00:52:11;17.17;;;9.07;;
17175;SDS011;8703;48.996;9.594;2023-03-01T00:54:38;16.83;;;8.90;;
17175;SDS011;8703;48.996;9.594;2023-03-01T00:57:07;14.03;;;7.83;;
17175;SDS011;8703;48.996;9.594;2023-03-01T00:59:34;16.60;;;8.57;;
17175;SDS011;8703;48.996;9.594;2023-03-01T01:02:01;14.47;;;7.73;;
17175;SDS011;8703;48.996;9.594;2023-03-01T01:04:29;18.37;;;8.53;;
17175;SDS011;8703;48.996;9.594;2023-03-01T01:06:56;17.63;;;8.30;;
17175;SDS011;8703;48.996;9.594;2023-03-01T01:09:23;16.87;;;8.83;;
17175;SDS011;8703;48.996;9.594;2023-03-01T01:11:51;16.77;;;8.10;;
17175;SDS011;8703;48.996;9.594;2023-03-01T01:14:19;14.57;;;8.43;;
17175;SDS011;8703;48.996;9.594;2023-03-01T01:16:47;15.87;;;8.90;;
17175;SDS011;8703;48.996;9.594;2023-03-01T01:19:15;19.77;;;9.00;;
17175;SDS011;8703;48.996;9.594;2023-03-01T01:21:42;18.23;;;8.67;;
17175;SDS011;8703;48.996;9.594;2023-03-01T01:24:10;18.17;;;8.47;;
17175;SDS011;8703;48.996;9.594;2023-03-01T01:26:37;18.70;;;10.47;;
17175;SDS011;8703;48.996;9.594;2023-03-01T01:29:05;18.53;;;9.23;;
17175;SDS011;8703;48.996;9.594;2023-03-01T01:31:34;19.10;;;9.57;;
17175;SDS011;8703;48.996;9.594;2023-03-01T01:34:04;16.33;;;8.53;;
17175;SDS011;8703;48.996;9.594;2023-03-01T01:36:32;17.60;;;9.03;;
17175;SDS011;8703;48.996;9.594;2023-03-01T01:39:00;17.33;;;9.10;;
17175;SDS011;8703;48.996;9.594;2023-03-01T01:41:28;14.37;;;8.57;;
17175;SDS011;8703;48.996;9.594;2023-03-01T01:44:16;18.93;;;9.17;;
17175;SDS011;8703;48.996;9.594;2023-03-01T01:46:47;25.20;;;11.03;;
17175;SDS011;8703;48.996;9.594;2023-03-01T01:49:18;27.90;;;12.00;;
17175;SDS011;8703;48.996;9.594;2023-03-01T01:51:51;30.27;;;12.07;;
17175;SDS011;8703;48.996;9.594;2023-03-01T01:54:24;23.90;;;10.57;;
17175;SDS011;8703;48.996;9.594;2023-03-01T01:56:55;28.47;;;11.53;;
17175;SDS011;8703;48.996;9.594;2023-03-01T01:59:24;25.57;;;11.43;;
17175;SDS011;8703;48.996;9.594;2023-03-01T02:01:53;24.20;;;11.17;;
17175;SDS011;8703;48.996;9.594;2023-03-01T02:04:21;25.30;;;11.17;;
17175;SDS011;8703;48.996;9.594;2023-03-01T02:06:49;22.33;;;10.90;;
17175;SDS011;8703;48.996;9.594;2023-03-01T02:09:20;21.23;;;10.60;;
17175;SDS011;8703;48.996;9.594;2023-03-01T02:11:50;20.90;;;10.17;;
17175;SDS011;8703;48.996;9.594;2023-03-01T02:14:18;18.57;;;9.30;;
17175;SDS011;8703;48.996;9.594;2023-03-01T02:16:45;19.20;;;10.03;;
17175;SDS011;8703;48.996;9.594;2023-03-01T02:19:16;18.20;;;10.10;;
17175;SDS011;8703;48.996;9.594;2023-03-01T02:21:49;19.70;;;9.83;;
17175;SDS011;8703;48.996;9.594;2023-03-01T02:24:21;22.27;;;9.80;;
17175;SDS011;8703;48.996;9.594;2023-03-01T02:26:57;22.00;;;11.07;;
17175;SDS011;8703;48.996;9.594;2023-03-01T02:29:26;18.23;;;9.47;;
17175;SDS011;8703;48.996;9.594;2023-03-01T02:31:54;23.60;;;11.30;;
17175;SDS011;8703;48.996;9.594;2023-03-01T02:34:23;23.50;;;11.27;;
17175;SDS011;8703;48.996;9.594;2023-03-01T02:36:52;23.07;;;10.67;;
17175;SDS011;8703;48.996;9.594;2023-03-01T02:39:22;18.17;;;10.20;;
17175;SDS011;8703;48.996;9.594;2023-03-01T02:41:52;18.43;;;9.70;;
17175;SDS011;8703;48.996;9.594;2023-03-01T02:44:20;18.53;;;9.60;;
17175;SDS011;8703;48.996;9.594;2023-03-01T02:46:50;18.73;;;9.97;;
17175;SDS011;8703;48.996;9.594;2023-03-01T02:49:20;18.57;;;9.90;;
17175;SDS011;8703;48.996;9.594;2023-03-01T02:51:54;21.07;;;10.33;;
17175;SDS011;8703;48.996;9.594;2023-03-01T02:54:31;19.50;;;9.93;;
17175;SDS011;8703;48.996;9.594;2023-03-01T02:57:03;19.13;;;9.77;;
17175;SDS011;8703;48.996;9.594;2023-03-01T02:59:30;21.87;;;10.63;;
17175;SDS011;8703;48.996;9.594;2023-03-01T03:02:01;18.67;;;10.23;;
17175;SDS011;8703;48.996;9.594;2023-03-01T03:04:28;20.43;;;10.57;;
17175;SDS011;8703;48.996;9.594;2023-03-01T03:06:56;24.30;;;11.30;;
17175;SDS011;8703;48.996;9.594;2023-03-01T03:09:24;23.83;;;11.10;;
17175;SDS011;8703;48.996;9.594;2023-03-01T03:11:51;21.17;;;10.87;;
17175;SDS011;8703;48.996;9.594;2023-03-01T03:14:19;20.93;;;10.63;;
17175;SDS011;8703;48.996;9.594;2023-03-01T03:16:47;22.97;;;11.20;;
17175;SDS011;8703;48.996;9.594;2023-03-01T03:19:17;22.03;;;10.47;;
17175;SDS011;8703;48.996;9.594;2023-03-01T03:21:45;22.27;;;11.50;;
17175;SDS011;8703;48.996;9.594;2023-03-01T03:24:13;24.27;;;11.63;;
17175;SDS011;8703;48.996;9.594;2023-03-01T03:26:40;22.47;;;11.83;;
17175;SDS011;8703;48.996;9.594;2023-03-01T03:29:07;21.00;;;11.30;;
17175;SDS011;8703;48.996;9.594;2023-03-01T03:31:35;20.80;;;10.17;;
17175;SDS011;8703;48.996;9.594;2023-03-01T03:34:02;19.03;;;10.30;;
17175;SDS011;8703;48.996;9.594;2023-03-01T03:36:31;21.07;;;11.17;;
17175;SDS011;8703;48.996;9.594;2023-03-01T03:38:58;16.50;;;9.97;;
17175;SDS011;8703;48.996;9.594;2023-03-01T03:41:26;21.03;;;10.43;;
17175;SDS011;8703;48.996;9.594;2023-03-01T03:43:53;19.23;;;10.67;;
17175;SDS011;8703;48.996;9.594;2023-03-01T03:46:20;24.77;;;11.77;;
17175;SDS011;8703;48.996;9.594;2023-03-01T03:48:48;33.50;;;13.93;;
17175;SDS011;8703;48.996;9.594;2023-03-01T03:51:15;27.00;;;12.33;;
17175;SDS011;8703;48.996;9.594;2023-03-01T03:53:45;26.90;;;12.10;;
17175;SDS011;8703;48.996;9.594;2023-03-01T03:56:12;24.43;;;11.63;;
17175;SDS011;8703;48.996;9.594;2023-03-01T03:58:40;21.50;;;11.37;;
17175;SDS011;8703;48.996;9.594;2023-03-01T04:01:07;24.40;;;11.63;;
17175;SDS011;8703;48.996;9.594;2023-03-01T04:03:34;24.07;;;11.60;;
17175;SDS011;8703;48.996;9.594;2023-03-01T04:06:02;22.17;;;11.43;;
17175;SDS011;8703;48.996;9.594;2023-03-01T04:08:31;21.30;;;10.70;;
17175;SDS011;8703;48.996;9.594;2023-03-01T04:11:01;21.90;;;10.90;;
17175;SDS011;8703;48.996;9.594;2023-03-01T04:13:50;21.90;;;10.90;;
17175;SDS011;8703;48.996;9.594;2023-03-01T04:16:19;20.30;;;10.50;;
17175;SDS011;8703;48.996;9.594;2023-03-01T04:18:46;20.70;;;10.73;;
17175;SDS011;8703;48.996;9.594;2023-03-01T04:21:14;19.33;;;9.93;;
17175;SDS011;8703;48.996;9.594;2023-03-01T04:23:41;21.33;;;9.73;;
17175;SDS011;8703;48.996;9.594;2023-03-01T04:26:10;21.97;;;10.60;;
17175;SDS011;8703;48.996;9.594;2023-03-01T04:28:38;20.03;;;10.87;;
17175;SDS011;8703;48.996;9.594;2023-03-01T04:31:10;22.73;;;10.90;;
17175;SDS011;8703;48.996;9.594;2023-03-01T04:33:42;21.00;;;10.37;;
17175;SDS011;8703;48.996;9.594;2023-03-01T04:36:11;22.97;;;10.93;;
17175;SDS011;8703;48.996;9.594;2023-03-01T04:38:39;21.13;;;10.37;;
17175;SDS011;8703;48.996;9.594;2023-03-01T04:41:14;19.57;;;10.30;;
17175;SDS011;8703;48.996;9.594;2023-03-01T04:43:42;22.23;;;10.30;;
17175;SDS011;8703;48.996;9.594;2023-03-01T04:46:11;20.50;;;10.63;;
17175;SDS011;8703;48.996;9.594;2023-03-01T04:48:40;19.80;;;10.87;;
17175;SDS011;8703;48.996;9.594;2023-03-01T04:51:08;20.67;;;11.00;;
17175;SDS011;8703;48.996;9.594;2023-03-01T04:53:38;23.13;;;11.23;;
17175;SDS011;8703;48.996;9.594;2023-03-01T04:56:06;27.83;;;11.50;;
17175;SDS011;8703;48.996;9.594;2023-03-01T04:58:35;19.97;;;10.10;;
17175;SDS011;8703;48.996;9.594;2023-03-01T05:01:07;22.33;;;11.10;;
17175;SDS011;8703;48.996;9.594;2023-03-01T05:03:40;20.43;;;11.17;;
17175;SDS011;8703;48.996;9.594;2023-03-01T05:06:08;18.87;;;11.17;;
17175;SDS011;8703;48.996;9.594;2023-03-01T05:08:36;21.47;;;11.67;;
17175;SDS011;8703;48.996;9.594;2023-03-01T05:11:04;22.10;;;11.23;;
17175;SDS011;8703;48.996;9.594;2023-03-01T05:13:35;21.17;;;10.57;;
17175;SDS011;8703;48.996;9.594;2023-03-01T05:16:03;20.53;;;10.90;;
17175;SDS011;8703;48.996;9.594;2023-03-01T05:18:32;21.90;;;10.70;;
17175;SDS011;8703;48.996;9.594;2023-03-01T05:21:02;21.33;;;11.30;;
17175;SDS011;8703;48.996;9.594;2023-03-01T05:23:31;22.37;;;11.57;;
17175;SDS011;8703;48.996;9.594;2023-03-01T05:25:59;20.43;;;11.20;;
17175;SDS011;8703;48.996;9.594;2023-03-01T05:28:29;24.80;;;10.70;;
17175;SDS011;8703;48.996;9.594;2023-03-01T05:30:58;19.80;;;10.87;;
17175;SDS011;8703;48.996;9.594;2023-03-01T05:33:25;22.20;;;11.40;;
17175;SDS011;8703;48.996;9.594;2023-03-01T05:35:53;22.20;;;11.00;;
17175;SDS011;8703;48.996;9.594;2023-03-01T05:38:20;20.67;;;10.80;;
17175;SDS011;8703;48.996;9.594;2023-03-01T05:40:48;21.10;;;10.93;;
17175;SDS011;8703;48.996;9.594;2023-03-01T05:43:16;20.53;;;10.67;;
17175;SDS011;8703;48.996;9.594;2023-03-01T05:45:44;25.00;;;11.00;;
17175;SDS011;8703;48.996;9.594;2023-03-01T05:48:13;21.20;;;10.63;;
17175;SDS011;8703;48.996;9.594;2023-03-01T05:50:41;20.90;;;11.10;;
17175;SDS011;8703;48.996;9.594;2023-03-01T05:53:11;21.03;;;11.13;;
17175;SDS011;8703;48.996;9.594;2023-03-01T05:55:40;22.60;;;11.03;;
17175;SDS011;8703;48.996;9.594;2023-03-01T05:58:09;23.10;;;11.57;;
17175;SDS011;8703;48.996;9.594;2023-03-01T06:00:39;20.53;;;10.50;;
17175;SDS011;8703;48.996;9.594;2023-03-01T06:03:06;21.77;;;10.50;;
17175;SDS011;8703;48.996;9.594;2023-03-01T06:05:38;20.53;;;10.57;;
17175;SDS011;8703;48.996;9.594;2023-03-01T06:08:06;23.23;;;10.97;;
17175;SDS011;8703;48.996;9.594;2023-03-01T06:10:34;20.30;;;10.90;;
17175;SDS011;8703;48.996;9.594;2023-03-01T06:13:02;20.33;;;10.83;;
17175;SDS011;8703;48.996;9.594;2023-03-01T06:15:30;24.03;;;11.63;;
17175;SDS011;8703;48.996;9.594;2023-03-01T06:17:57;19.87;;;10.53;;
17175;SDS011;8703;48.996;9.594;2023-03-01T06:20:25;20.40;;;10.73;;
17175;SDS011;8703;48.996;9.594;2023-03-01T06:22:55;36.37;;;16.93;;
17175;SDS011;8703;48.996;9.594;2023-03-01T06:25:23;32.93;;;14.47;;
17175;SDS011;8703;48.996;9.594;2023-03-01T06:27:52;26.60;;;12.37;;
17175;SDS011;8703;48.996;9.594;2023-03-01T06:30:20;23.43;;;11.60;;
17175;SDS011;8703;48.996;9.594;2023-03-01T06:32:49;57.10;;;23.27;;
17175;SDS011;8703;48.996;9.594;2023-03-01T06:35:17;83.33;;;31.70;;
17175;SDS011;8703;48.996;9.594;2023-03-01T06:37:45;32.13;;;14.93;;
17175;SDS011;8703;48.996;9.594;2023-03-01T06:40:15;27.17;;;11.90;;
17175;SDS011;8703;48.996;9.594;2023-03-01T06:42:47;24.47;;;11.53;;
17175;SDS011;8703;48.996;9.594;2023-03-01T06:45:16;22.13;;;11.20;;
17175;SDS011;8703;48.996;9.594;2023-03-01T06:47:44;21.50;;;10.80;;
17175;SDS011;8703;48.996;9.594;2023-03-01T06:50:12;28.90;;;11.43;;
17175;SDS011;8703;48.996;9.594;2023-03-01T06:52:40;20.93;;;10.97;;
17175;SDS011;8703;48.996;9.594;2023-03-01T06:55:09;20.70;;;10.27;;
17175;SDS011;8703;48.996;9.594;2023-03-01T06:57:38;27.57;;;12.87;;
17175;SDS011;8703;48.996;9.594;2023-03-01T07:00:06;21.67;;;11.50;;
17175;SDS011;8703;48.996;9.594;2023-03-01T07:02:35;21.10;;;11.00;;
17175;SDS011;8703;48.996;9.594;2023-03-01T07:05:02;22.80;;;11.60;;
17175;SDS011;8703;48.996;9.594;2023-03-01T07:07:30;23.30;;;11.60;;
17175;SDS011;8703;48.996;9.594;2023-03-01T07:09:57;23.80;;;11.27;;
17175;SDS011;8703;48.996;9.594;2023-03-01T07:12:25;19.63;;;11.17;;
17175;SDS011;8703;48.996;9.594;2023-03-01T07:14:53;22.37;;;11.20;;
17175;SDS011;8703;48.996;9.594;2023-03-01T07:17:21;23.93;;;11.97;;
17175;SDS011;8703;48.996;9.594;2023-03-01T07:19:48;22.40;;;11.00;;
17175;SDS011;8703;48.996;9.594;2023-03-01T07:22:15;23.40;;;11.37;;
17175;SDS011;8703;48.996;9.594;2023-03-01T07:24:43;22.37;;;11.37;;
17175;SDS011;8703;48.996;9.594;2023-03-01T07:27:10;24.07;;;11.47;;
17175;SDS011;8703;48.996;9.594;2023-03-01T07:29:37;22.97;;;10.80;;
17175;SDS011;8703;48.996;9.594;2023-03-01T07:32:06;22.23;;;10.73;;
17175;SDS011;8703;48.996;9.594;2023-03-01T07:34:34;22.00;;;10.70;;
17175;SDS011;8703;48.996;9.594;2023-03-01T07:37:01;20.90;;;10.40;;
17175;SDS011;8703;48.996;9.594;2023-03-01T07:39:29;22.17;;;11.10;;
17175;SDS011;8703;48.996;9.594;2023-03-01T07:41:56;22.97;;;10.63;;
17175;SDS011;8703;48.996;9.594;2023-03-01T07:44:24;21.80;;;11.23;;
17175;SDS011;8703;48.996;9.594;2023-03-01T07:46:51;25.73;;;11.93;;
17175;SDS011;8703;48.996;9.594;2023-03-01T07:49:22;25.53;;;11.87;;
17175;SDS011;8703;48.996;9.594;2023-03-01T07:51:51;23.40;;;11.50;;
17175;SDS011;8703;48.996;9.594;2023-03-01T07:54:18;20.77;;;11.50;;
17175;SDS011;8703;48.996;9.594;2023-03-01T07:56:46;22.90;;;12.23;;
17175;SDS011;8703;48.996;9.594;2023-03-01T07:59:13;25.40;;;12.10;;
17175;SDS011;8703;48.996;9.594;2023-03-01T08:01:40;22.37;;;11.03;;
17175;SDS011;8703;48.996;9.594;2023-03-01T08:04:08;24.37;;;11.37;;
17175;SDS011;8703;48.996;9.594;2023-03-01T08:06:37;22.30;;;11.23;;
17175;SDS011;8703;48.996;9.594;2023-03-01T08:09:04;23.50;;;11.33;;
17175;SDS011;8703;48.996;9.594;2023-03-01T08:11:32;22.37;;;11.07;;
17175;SDS011;8703;48.996;9.594;2023-03-01T08:14:00;21.07;;;11.30;;
17175;SDS011;8703;48.996;9.594;2023-03-01T08:16:27;23.23;;;12.37;;
17175;SDS011;8703;48.996;9.594;2023-03-01T08:18:54;24.40;;;11.70;;
17175;SDS011;8703;48.996;9.594;2023-03-01T08:21:25;21.37;;;11.77;;
17175;SDS011;8703;48.996;9.594;2023-03-01T08:23:54;19.77;;;10.57;;
17175;SDS011;8703;48.996;9.594;2023-03-01T08:26:21;24.23;;;11.40;;
17175;SDS011;8703;48.996;9.594;2023-03-01T08:28:49;24.03;;;12.13;;
17175;SDS011;8703;48.996;9.594;2023-03-01T08:31:18;20.20;;;11.53;;
17175;SDS011;8703;48.996;9.594;2023-03-01T08:33:47;25.83;;;12.57;;
17175;SDS011;8703;48.996;9.594;2023-03-01T08:36:20;23.50;;;12.00;;
17175;SDS011;8703;48.996;9.594;2023-03-01T08:38:47;24.97;;;11.57;;
17175;SDS011;8703;48.996;9.594;2023-03-01T08:41:16;24.40;;;11.97;;
17175;SDS011;8703;48.996;9.594;2023-03-01T08:43:44;25.50;;;12.37;;
17175;SDS011;8703;48.996;9.594;2023-03-01T08:46:11;23.03;;;11.43;;
17175;SDS011;8703;48.996;9.594;2023-03-01T08:48:39;26.37;;;12.50;;
17175;SDS011;8703;48.996;9.594;2023-03-01T08:51:08;27.37;;;12.70;;
17175;SDS011;8703;48.996;9.594;2023-03-01T08:53:36;27.77;;;12.93;;
17175;SDS011;8703;48.996;9.594;2023-03-01T08:56:04;22.60;;;12.10;;
17175;SDS011;8703;48.996;9.594;2023-03-01T08:58:33;26.80;;;13.27;;
17175;SDS011;8703;48.996;9.594;2023-03-01T09:01:01;25.10;;;11.60;;
17175;SDS011;8703;48.996;9.594;2023-03-01T09:03:33;20.77;;;11.93;;
17175;SDS011;8703;48.996;9.594;2023-03-01T09:06:01;20.40;;;11.23;;
17175;SDS011;8703;48.996;9.594;2023-03-01T09:08:30;20.43;;;10.97;;
17175;SDS011;8703;48.996;9.594;2023-03-01T09:10:57;21.10;;;11.57;;
17175;SDS011;8703;48.996;9.594;2023-03-01T09:13:27;22.03;;;11.53;;
17175;SDS011;8703;48.996;9.594;2023-03-01T09:15:57;24.50;;;12.37;;
17175;SDS011;8703;48.996;9.594;2023-03-01T09:18:25;22.70;;;11.50;;
17175;SDS011;8703;48.996;9.594;2023-03-01T09:20:52;20.23;;;11.40;;
17175;SDS011;8703;48.996;9.594;2023-03-01T09:23:21;20.27;;;11.23;;
17175;SDS011;8703;48.996;9.594;2023-03-01T09:25:48;24.23;;;12.30;;
17175;SDS011;8703;48.996;9.594;2023-03-01T09:28:15;41.10;;;14.00;;
17175;SDS011;8703;48.996;9.594;2023-03-01T09:30:42;26.57;;;12.50;;
17175;SDS011;8703;48.996;9.594;2023-03-01T09:33:11;25.00;;;11.67;;
17175;SDS011;8703;48.996;9.594;2023-03-01T09:35:39;23.37;;;12.57;;
17175;SDS011;8703;48.996;9.594;2023-03-01T09:38:11;23.30;;;11.10;;
17175;SDS011;8703;48.996;9.594;2023-03-01T09:40:41;20.80;;;11.37;;
17175;SDS011;8703;48.996;9.594;2023-03-01T09:43:13;25.97;;;11.57;;
17175;SDS011;8703;48.996;9.594;2023-03-01T09:45:45;22.33;;;12.00;;
17175;SDS011;8703;48.996;9.594;2023-03-01T09:48:16;25.70;;;12.10;;
17175;SDS011;8703;48.996;9.594;2023-03-01T09:50:48;20.50;;;11.33;;
17175;SDS011;8703;48.996;9.594;2023-03-01T09:53:17;26.57;;;14.67;;
17175;SDS011;8703;48.996;9.594;2023-03-01T09:55:48;20.67;;;11.83;;
17175;SDS011;8703;48.996;9.594;2023-03-01T10:01:23;18.23;;;10.40;;
17175;SDS011;8703;48.996;9.594;2023-03-01T10:04:02;20.80;;;11.83;;
17175;SDS011;8703;48.996;9.594;2023-03-01T10:06:48;20.03;;;11.30;;
17175;SDS011;8703;48.996;9.594;2023-03-01T10:09:18;18.80;;;10.37;;
17175;SDS011;8703;48.996;9.594;2023-03-01T10:11:48;22.07;;;12.30;;
17175;SDS011;8703;48.996;9.594;2023-03-01T10:14:23;20.10;;;11.20;;
17175;SDS011;8703;48.996;9.594;2023-03-01T10:16:56;21.50;;;11.50;;
17175;SDS011;8703;48.996;9.594;2023-03-01T10:19:30;18.80;;;11.30;;
17175;SDS011;8703;48.996;9.594;2023-03-01T10:22:00;20.40;;;11.07;;
17175;SDS011;8703;48.996;9.594;2023-03-01T10:24:31;20.43;;;11.27;;
17175;SDS011;8703;48.996;9.594;2023-03-01T10:27:01;22.90;;;11.47;;
17175;SDS011;8703;48.996;9.594;2023-03-01T10:29:34;22.67;;;12.23;;
17175;SDS011;8703;48.996;9.594;2023-03-01T10:32:05;19.70;;;11.50;;
17175;SDS011;8703;48.996;9.594;2023-03-01T10:34:34;22.67;;;11.30;;
17175;SDS011;8703;48.996;9.594;2023-03-01T10:37:08;19.90;;;11.13;;
17175;SDS011;8703;48.996;9.594;2023-03-01T10:39:37;21.67;;;12.40;;
17175;SDS011;8703;48.996;9.594;2023-03-01T10:42:23;22.57;;;12.50;;
17175;SDS011;8703;48.996;9.594;2023-03-01T10:44:53;24.87;;;11.67;;
17175;SDS011;8703;48.996;9.594;2023-03-01T10:47:24;18.17;;;11.17;;
17175;SDS011;8703;48.996;9.594;2023-03-01T10:50:03;18.17;;;10.90;;
17175;SDS011;8703;48.996;9.594;2023-03-01T10:52:32;20.93;;;11.77;;
17175;SDS011;8703;48.996;9.594;2023-03-01T10:55:04;18.73;;;11.00;;
17175;SDS011;8703;48.996;9.594;2023-03-01T10:57:48;21.03;;;11.00;;
17175;SDS011;8703;48.996;9.594;2023-03-01T11:00:18;21.13;;;11.57;;
17175;SDS011;8703;48.996;9.594;2023-03-01T11:02:49;19.37;;;11.00;;
17175;SDS011;8703;48.996;9.594;2023-03-01T11:05:20;19.67;;;11.20;;
17175;SDS011;8703;48.996;9.594;2023-03-01T11:07:50;20.83;;;12.03;;
17175;SDS011;8703;48.996;9.594;2023-03-01T11:10:22;20.23;;;10.33;;
17175;SDS011;8703;48.996;9.594;2023-03-01T11:12:51;23.30;;;12.60;;
17175;SDS011;8703;48.996;9.594;2023-03-01T11:15:20;24.77;;;13.40;;
17175;SDS011;8703;48.996;9.594;2023-03-01T11:17:52;20.30;;;11.03;;
17175;SDS011;8703;48.996;9.594;2023-03-01T11:20:25;25.60;;;12.30;;
17175;SDS011;8703;48.996;9.594;2023-03-01T11:22:56;18.43;;;10.47;;
17175;SDS011;8703;48.996;9.594;2023-03-01T11:25:26;26.00;;;13.07;;
17175;SDS011;8703;48.996;9.594;2023-03-01T11:27:55;18.00;;;10.17;;
17175;SDS011;8703;48.996;9.594;2023-03-01T11:30:24;15.93;;;9.87;;
17175;SDS011;8703;48.996;9.594;2023-03-01T11:32:58;18.73;;;11.50;;
17175;SDS011;8703;48.996;9.594;2023-03-01T11:35:31;22.50;;;12.03;;
17175;SDS011;8703;48.996;9.594;2023-03-01T11:38:03;17.23;;;10.10;;
17175;SDS011;8703;48.996;9.594;2023-03-01T11:40:38;21.40;;;10.97;;
17175;SDS011;8703;48.996;9.594;2023-03-01T11:43:11;22.03;;;11.73;;
17175;SDS011;8703;48.996;9.594;2023-03-01T11:45:46;17.80;;;9.47;;
17175;SDS011;8703;48.996;9.594;2023-03-01T11:48:28;20.40;;;11.90;;
17175;SDS011;8703;48.996;9.594;2023-03-01T11:51:07;16.40;;;10.13;;
17175;SDS011;8703;48.996;9.594;2023-03-01T11:53:50;19.13;;;10.90;;
17175;SDS011;8703;48.996;9.594;2023-03-01T11:56:26;22.37;;;10.77;;
17175;SDS011;8703;48.996;9.594;2023-03-01T11:59:12;18.63;;;10.73;;
17175;SDS011;8703;48.996;9.594;2023-03-01T12:02:12;16.43;;;10.13;;
17175;SDS011;8703;48.996;9.594;2023-03-01T12:04:54;17.80;;;9.97;;
17175;SDS011;8703;48.996;9.594;2023-03-01T12:07:51;16.47;;;10.67;;
17175;SDS011;8703;48.996;9.594;2023-03-01T12:10:25;20.17;;;11.83;;
17175;SDS011;8703;48.996;9.594;2023-03-01T12:15:46;20.53;;;11.73;;
17175;SDS011;8703;48.996;9.594;2023-03-01T12:18:23;17.87;;;10.03;;
17175;SDS011;8703;48.996;9.594;2023-03-01T12:20:59;18.90;;;11.83;;
17175;SDS011;8703;48.996;9.594;2023-03-01T12:23:43;16.53;;;9.90;;
17175;SDS011;8703;48.996;9.594;2023-03-01T12:26:23;17.53;;;10.53;;
17175;SDS011;8703;48.996;9.594;2023-03-01T12:29:01;18.00;;;11.43;;
17175;SDS011;8703;48.996;9.594;2023-03-01T12:31:41;17.17;;;10.43;;
17175;SDS011;8703;48.996;9.594;2023-03-01T12:34:22;17.57;;;10.67;;
17175;SDS011;8703;48.996;9.594;2023-03-01T12:37:11;20.27;;;11.57;;
17175;SDS011;8703;48.996;9.594;2023-03-01T12:39:54;18.30;;;11.00;;
17175;SDS011;8703;48.996;9.594;2023-03-01T12:42:38;18.90;;;11.30;;
17175;SDS011;8703;48.996;9.594;2023-03-01T12:51:04;20.00;;;13.23;;
17175;SDS011;8703;48.996;9.594;2023-03-01T12:53:36;24.50;;;14.10;;
17175;SDS011;8703;48.996;9.594;2023-03-01T12:56:08;21.30;;;13.53;;
17175;SDS011;8703;48.996;9.594;2023-03-01T12:58:39;22.33;;;13.63;;
17175;SDS011;8703;48.996;9.594;2023-03-01T13:01:11;20.33;;;14.33;;
17175;SDS011;8703;48.996;9.594;2023-03-01T13:04:01;18.77;;;11.83;;
17175;SDS011;8703;48.996;9.594;2023-03-01T13:06:52;20.23;;;12.87;;
17175;SDS011;8703;48.996;9.594;2023-03-01T13:09:25;19.87;;;14.37;;
17175;SDS011;8703;48.996;9.594;2023-03-01T13:11:57;22.93;;;14.63;;
17175;SDS011;8703;48.996;9.594;2023-03-01T13:14:37;19.77;;;14.47;;
17175;SDS011;8703;48.996;9.594;2023-03-01T13:17:30;18.67;;;14.40;;
17175;SDS011;8703;48.996;9.594;2023-03-01T13:19:59;21.17;;;14.73;;
17175;SDS011;8703;48.996;9.594;2023-03-01T13:22:29;23.27;;;16.00;;
17175;SDS011;8703;48.996;9.594;2023-03-01T13:25:02;19.47;;;14.73;;
17175;SDS011;8703;48.996;9.594;2023-03-01T13:27:39;22.70;;;15.27;;
17175;SDS011;8703;48.996;9.594;2023-03-01T13:30:37;21.20;;;14.57;;
17175;SDS011;8703;48.996;9.594;2023-03-01T13:36:07;19.40;;;14.33;;
17175;SDS011;8703;48.996;9.594;2023-03-01T13:38:48;22.47;;;14.33;;
17175;SDS011;8703;48.996;9.594;2023-03-01T13:44:19;19.93;;;14.40;;
17175;SDS011;8703;48.996;9.594;2023-03-01T13:46:51;19.17;;;13.47;;
17175;SDS011;8703;48.996;9.594;2023-03-01T13:49:20;20.63;;;14.43;;
17175;SDS011;8703;48.996;9.594;2023-03-01T13:51:49;20.93;;;15.13;;
17175;SDS011;8703;48.996;9.594;2023-03-01T13:54:22;21.17;;;14.50;;
17175;SDS011;8703;48.996;9.594;2023-03-01T13:56:52;19.73;;;14.43;;
17175;SDS011;8703;48.996;9.594;2023-03-01T13:59:21;19.53;;;14.40;;
17175;SDS011;8703;48.996;9.594;2023-03-01T14:01:54;21.73;;;14.67;;
17175;SDS011;8703;48.996;9.594;2023-03-01T14:04:23;19.30;;;14.27;;
17175;SDS011;8703;48.996;9.594;2023-03-01T14:06:52;18.83;;;14.37;;
17175;SDS011;8703;48.996;9.594;2023-03-01T14:09:34;21.23;;;15.00;;
17175;SDS011;8703;48.996;9.594;2023-03-01T14:12:09;21.80;;;14.57;;
17175;SDS011;8703;48.996;9.594;2023-03-01T14:14:46;18.67;;;14.03;;
17175;SDS011;8703;48.996;9.594;2023-03-01T14:20:08;21.57;;;14.53;;
17175;SDS011;8703;48.996;9.594;2023-03-01T14:22:42;22.20;;;16.10;;
17175;SDS011;8703;48.996;9.594;2023-03-01T14:25:17;18.10;;;13.90;;
17175;SDS011;8703;48.996;9.594;2023-03-01T14:27:51;18.57;;;14.50;;
17175;SDS011;8703;48.996;9.594;2023-03-01T14:30:22;20.37;;;14.40;;
17175;SDS011;8703;48.996;9.594;2023-03-01T14:32:52;19.20;;;14.13;;
17175;SDS011;8703;48.996;9.594;2023-03-01T14:35:21;20.33;;;13.83;;
17175;SDS011;8703;48.996;9.594;2023-03-01T14:37:51;18.30;;;13.87;;
17175;SDS011;8703;48.996;9.594;2023-03-01T14:40:20;21.27;;;13.83;;
17175;SDS011;8703;48.996;9.594;2023-03-01T14:42:52;18.63;;;13.60;;
17175;SDS011;8703;48.996;9.594;2023-03-01T14:45:22;17.60;;;13.60;;
17175;SDS011;8703;48.996;9.594;2023-03-01T14:47:51;17.77;;;13.37;;
17175;SDS011;8703;48.996;9.594;2023-03-01T14:50:21;17.60;;;13.43;;
17175;SDS011;8703;48.996;9.594;2023-03-01T14:52:50;18.60;;;13.83;;
17175;SDS011;8703;48.996;9.594;2023-03-01T14:55:21;18.13;;;13.20;;
17175;SDS011;8703;48.996;9.594;2023-03-01T14:57:51;20.03;;;14.53;;
17175;SDS011;8703;48.996;9.594;2023-03-01T15:00:20;21.17;;;13.90;;
17175;SDS011;8703;48.996;9.594;2023-03-01T15:02:51;19.60;;;14.67;;
17175;SDS011;8703;48.996;9.594;2023-03-01T15:05:22;17.30;;;12.80;;
17175;SDS011;8703;48.996;9.594;2023-03-01T15:07:52;19.07;;;13.13;;
17175;SDS011;8703;48.996;9.594;2023-03-01T15:10:20;18.83;;;13.27;;
17175;SDS011;8703;48.996;9.594;2023-03-01T15:12:49;18.37;;;12.60;;
17175;SDS011;8703;48.996;9.594;2023-03-01T15:18:13;18.67;;;12.67;;